Time;durP1;ratioP1;P1;durP2;ratioP2;P2;SDS_P1;SDS_P2;PMS_P1;PMS_P2;Temp;Humidity;BMP_temperature;BMP_pressure;BME280_temperature;BME280_humidity;BME280_pressure;Samples;Min_cycle;Max_cycle;Signal;HPM_P1;HPM_P2
2022/06/28 04:31:26;;;;;;;;;;;26.10;99.90;;;;;;5137937;23;19981;-81
2022/06/28 04:33:52;;;;;;;;;;;26.10;99.90;;;;;;4997000;28;20008;-81
2022/06/28 04:36:19;;;;;;;;;;;26.10;99.90;;;;;;4996495;28;20357;-78
2022/06/28 04:38:45;;;;;;;;;;;26.10;99.90;;;;;;4994756;28;20387;-79
2022/06/28 04:41:12;;;;;;;;;;;26.10;99.90;;;;;;4994124;28;20004;-78
2022/06/28 04:43:39;;;;;;;;;;;26.00;99.90;;;;;;4995144;28;20300;-78
2022/06/28 04:46:06;;;;;;;;;;;26.10;99.90;;;;;;4994243;28;20403;-79
2022/06/28 04:48:34;;;;;;;;;;;26.10;99.90;;;;;;4994203;28;20301;-78
2022/06/28 04:51:10;;;;;;;;;;;26.10;99.90;;;;;;4995131;28;19928;-81
2022/06/28 04:53:38;;;;;;;;;;;26.10;99.90;;;;;;4997537;28;20395;-81
2022/06/28 04:56:04;;;;;;;;;;;26.00;99.90;;;;;;4998099;28;20377;-81
2022/06/28 04:58:32;;;;;;;;;;;26.00;99.90;;;;;;4998614;28;19922;-78
2022/06/28 05:00:58;;;;;;;;;;;26.00;99.90;;;;;;4994169;28;20408;-77
2022/06/28 05:03:25;;;;;;;;;;;26.00;99.90;;;;;;4994544;28;20353;-78
2022/06/28 05:05:53;;;;;;;;;;;26.00;99.90;;;;;;4994046;28;20274;-76
2022/06/28 05:08:20;;;;;;;;;;;26.10;99.90;;;;;;4994470;28;19925;-81
2022/06/28 05:10:46;;;;;;;;;;;26.00;99.90;;;;;;4997141;28;19968;-85
2022/06/28 05:13:13;;;;;;;;;;;26.00;99.80;;;;;;5001765;28;19928;-81
2022/06/28 05:15:40;;;;;;;;;;;26.00;99.70;;;;;;5002083;28;19921;-81
2022/06/28 05:18:07;;;;;;;;;;;26.00;99.40;;;;;;5001291;28;20404;-84
2022/06/28 05:20:33;;;;;;;;;;;26.00;99.10;;;;;;5002650;28;19928;-84
2022/06/28 05:23:01;;;;;;;;;;;25.90;98.90;;;;;;5001939;28;20356;-82
2022/06/28 05:25:28;;;;;;;;;;;25.90;98.80;;;;;;4999022;28;20024;-82
2022/06/28 05:27:55;;;;;;;;;;;25.90;98.50;;;;;;4999386;28;19972;-82
2022/06/28 05:30:21;;;;;;;;;;;25.90;98.10;;;;;;5000270;28;19949;-82
2022/06/28 05:32:48;;;;;;;;;;;25.90;98.00;;;;;;5003447;28;20524;-81
2022/06/28 05:35:15;;;;;;;;;;;25.90;98.00;;;;;;5004787;28;20345;-81
2022/06/28 05:37:41;;;;;;;;;;;25.90;97.60;;;;;;5002829;28;20009;-78
2022/06/28 05:40:10;;;;;;;;;;;25.80;97.30;;;;;;5001364;28;20416;-82
2022/06/28 05:42:37;;;;;;;;;;;25.80;97.10;;;;;;5001065;28;19921;-81
2022/06/28 05:45:04;;;;;;;;;;;25.80;96.90;;;;;;5000698;28;19921;-80
2022/06/28 05:47:32;;;;;;;;;;;25.80;96.60;;;;;;5000440;28;19922;-80
2022/06/28 05:49:59;;;;;;;;;;;25.80;96.30;;;;;;4999478;28;19997;-79
2022/06/28 05:52:26;;;;;;;;;;;25.80;96.00;;;;;;4998462;28;19928;-78
2022/06/28 05:54:52;;;;;;;;;;;25.80;95.60;;;;;;4998547;28;19921;-78
2022/06/28 05:57:20;;;;;;;;;;;25.80;95.60;;;;;;4998376;28;20044;-78
2022/06/28 05:59:47;;;;;;;;;;;25.70;95.30;;;;;;4998311;28;19922;-80
2022/06/28 06:02:14;;;;;;;;;;;25.80;95.10;;;;;;4997703;28;19922;-79
2022/06/28 06:04:40;;;;;;;;;;;25.80;94.90;;;;;;4996989;28;19928;-79
2022/06/28 06:07:07;;;;;;;;;;;25.80;94.70;;;;;;4997428;28;19925;-79
2022/06/28 06:09:34;;;;;;;;;;;25.80;94.50;;;;;;4997477;28;19928;-79
2022/06/28 06:12:01;;;;;;;;;;;25.80;94.30;;;;;;4997336;28;19964;-79
2022/06/28 06:14:29;;;;;;;;;;;25.80;94.20;;;;;;4996900;28;19928;-79
2022/06/28 06:16:55;;;;;;;;;;;25.80;94.00;;;;;;4997289;28;20016;-79
2022/06/28 06:19:22;;;;;;;;;;;25.80;93.90;;;;;;4997165;28;19930;-79
2022/06/28 06:21:49;;;;;;;;;;;25.80;93.70;;;;;;4997444;28;19925;-79
2022/06/28 06:24:15;;;;;;;;;;;25.80;93.60;;;;;;4995923;28;20016;-79
2022/06/28 06:26:43;;;;;;;;;;;25.80;93.40;;;;;;4997383;28;19998;-79
2022/06/28 06:29:09;;;;;;;;;;;25.80;93.30;;;;;;4997121;28;19925;-79
2022/06/28 06:31:37;;;;;;;;;;;25.80;93.20;;;;;;4996742;28;20008;-79
2022/06/28 06:34:04;;;;;;;;;;;25.80;93.10;;;;;;4996768;28;20379;-79
2022/06/28 06:36:31;;;;;;;;;;;25.80;93.10;;;;;;4997196;28;19922;-79
2022/06/28 06:38:58;;;;;;;;;;;25.80;93.10;;;;;;4996923;28;19922;-79
2022/06/28 06:41:24;;;;;;;;;;;25.80;93.10;;;;;;4996355;28;20387;-79
2022/06/28 06:43:52;;;;;;;;;;;25.80;92.90;;;;;;4996896;28;19928;-79
2022/06/28 06:46:19;;;;;;;;;;;25.80;92.80;;;;;;4996673;28;20369;-79
2022/06/28 06:48:47;;;;;;;;;;;25.80;92.70;;;;;;4996743;28;19944;-79
2022/06/28 06:51:13;;;;;;;;;;;25.80;92.60;;;;;;4996327;28;19928;-79
2022/06/28 06:53:40;;;;;;;;;;;25.90;92.60;;;;;;4996345;28;19921;-79
2022/06/28 06:56:06;;;;;;;;;;;25.90;92.40;;;;;;4996359;28;19921;-79
2022/06/28 06:58:33;;;;;;;;;;;25.90;92.40;;;;;;4996296;28;19965;-79
2022/06/28 07:01:00;;;;;;;;;;;25.90;92.30;;;;;;4996237;28;19928;-79
2022/06/28 07:03:26;;;;;;;;;;;25.90;92.20;;;;;;4996446;28;20016;-79
2022/06/28 07:05:54;;;;;;;;;;;25.90;92.10;;;;;;4996292;28;20016;-79
2022/06/28 07:08:21;;;;;;;;;;;25.90;92.00;;;;;;4995876;28;20278;-79
2022/06/28 07:10:48;;;;;;;;;;;25.90;92.00;;;;;;4996142;28;19928;-79
2022/06/28 07:13:15;;;;;;;;;;;25.90;91.90;;;;;;4996146;28;19921;-79
2022/06/28 07:15:41;;;;;;;;;;;25.90;91.90;;;;;;4995814;28;20407;-79
2022/06/28 07:18:08;;;;;;;;;;;25.90;91.80;;;;;;4995823;28;20366;-79
2022/06/28 07:20:35;;;;;;;;;;;25.90;91.70;;;;;;4995654;28;20370;-80
2022/06/28 07:23:03;;;;;;;;;;;25.90;91.70;;;;;;4996033;28;20377;-78
2022/06/28 07:25:29;;;;;;;;;;;25.90;91.60;;;;;;4996717;28;19926;-80
2022/06/28 07:27:56;;;;;;;;;;;25.90;91.50;;;;;;4997283;28;19928;-80
2022/06/28 07:30:23;;;;;;;;;;;25.90;91.50;;;;;;4996388;28;19928;-80
2022/06/28 07:32:50;;;;;;;;;;;25.90;91.40;;;;;;4996250;28;19925;-80
2022/06/28 07:35:18;;;;;;;;;;;25.90;91.30;;;;;;4995925;28;19922;-80
2022/06/28 07:37:46;;;;;;;;;;;25.90;91.30;;;;;;4996412;28;19956;-80
2022/06/28 07:40:14;;;;;;;;;;;25.90;91.20;;;;;;4995799;28;19969;-80
2022/06/28 07:42:41;;;;;;;;;;;26.00;91.20;;;;;;4996067;28;19921;-80
2022/06/28 07:45:08;;;;;;;;;;;26.00;91.20;;;;;;4995729;28;19998;-80
2022/06/28 07:47:35;;;;;;;;;;;25.90;91.00;;;;;;4995359;28;19921;-80
2022/06/28 07:52:45;;;;;;;;;;;26.00;91.00;;;;;;4995691;28;20393;-80
2022/06/28 07:55:12;;;;;;;;;;;26.00;90.90;;;;;;4996138;28;19947;-80
2022/06/28 07:57:41;;;;;;;;;;;25.90;90.80;;;;;;4995521;28;20357;-80
2022/06/28 08:00:08;;;;;;;;;;;26.00;90.80;;;;;;4995726;28;20004;-80
2022/06/28 08:02:35;;;;;;;;;;;26.00;90.70;;;;;;4995759;28;19922;-80
2022/06/28 08:05:01;;;;;;;;;;;26.00;90.60;;;;;;4995468;28;20032;-80
2022/06/28 08:07:28;;;;;;;;;;;26.00;90.60;;;;;;4995484;28;19944;-80
2022/06/28 08:09:55;;;;;;;;;;;26.00;90.60;;;;;;4995423;28;19975;-80
2022/06/28 08:12:22;;;;;;;;;;;26.00;90.90;;;;;;4995006;28;20420;-80
2022/06/28 08:14:50;;;;;;;;;;;26.00;90.60;;;;;;4995129;28;20387;-80
2022/06/28 08:17:16;;;;;;;;;;;26.00;90.60;;;;;;4995368;28;19944;-80
2022/06/28 08:19:43;;;;;;;;;;;26.00;90.60;;;;;;4995046;28;20004;-80
2022/06/28 08:22:10;;;;;;;;;;;25.90;90.50;;;;;;4994704;28;20392;-80
2022/06/28 08:24:36;;;;;;;;;;;25.90;90.40;;;;;;4995241;28;20377;-79
2022/06/28 08:27:04;;;;;;;;;;;25.90;90.30;;;;;;4995044;28;19922;-79
2022/06/28 08:29:31;;;;;;;;;;;25.90;90.30;;;;;;4995390;28;19925;-80
2022/06/28 08:32:00;;;;;;;;;;;26.00;90.20;;;;;;4995536;28;19921;-80
2022/06/28 08:34:27;;;;;;;;;;;25.90;90.20;;;;;;4995235;28;20012;-79
2022/06/28 08:36:54;;;;;;;;;;;26.00;90.10;;;;;;4995187;28;20016;-79
2022/06/28 08:39:20;;;;;;;;;;;26.00;90.10;;;;;;4994904;28;19932;-80
2022/06/28 08:41:48;;;;;;;;;;;26.00;90.30;;;;;;4995091;28;19922;-80
2022/06/28 08:44:17;;;;;;;;;;;26.00;90.00;;;;;;4995006;28;20013;-80
2022/06/28 08:46:46;;;;;;;;;;;26.00;89.90;;;;;;4995968;28;20412;-80
2022/06/28 08:49:14;;;;;;;;;;;25.90;89.70;;;;;;4998620;28;20358;-80
2022/06/28 08:51:42;;;;;;;;;;;26.00;89.80;;;;;;4999002;28;19922;-80
2022/06/28 08:54:08;;;;;;;;;;;26.00;89.70;;;;;;4998724;28;19921;-80
2022/06/28 08:56:38;;;;;;;;;;;26.00;89.60;;;;;;4998739;28;19921;-80
2022/06/28 08:59:07;;;;;;;;;;;26.00;89.50;;;;;;4998870;28;19921;-79
2022/06/28 09:01:34;;;;;;;;;;;26.00;89.50;;;;;;4998787;28;19922;-80
2022/06/28 09:04:01;;;;;;;;;;;26.00;89.40;;;;;;4999040;28;19976;-80
2022/06/28 09:06:29;;;;;;;;;;;26.00;89.30;;;;;;4999025;28;19928;-80
2022/06/28 09:08:55;;;;;;;;;;;26.00;89.30;;;;;;4998646;28;19928;-80
2022/06/28 09:11:22;;;;;;;;;;;26.00;89.20;;;;;;4999253;28;19928;-80
2022/06/28 09:13:49;;;;;;;;;;;26.00;89.10;;;;;;4999383;28;19921;-79
2022/06/28 09:16:15;;;;;;;;;;;26.00;89.10;;;;;;4999068;28;19930;-79
2022/06/28 09:18:46;;;;;;;;;;;26.00;89.00;;;;;;4998723;28;20377;-79
2022/06/28 09:21:14;;;;;;;;;;;26.00;88.90;;;;;;4999026;28;19922;-80
2022/06/28 09:23:42;;;;;;;;;;;26.00;88.80;;;;;;4999573;28;19932;-80
2022/06/28 09:26:10;;;;;;;;;;;26.00;88.70;;;;;;4999818;28;19928;-80
2022/06/28 09:28:40;;;;;;;;;;;26.00;88.70;;;;;;4999410;28;19928;-80
2022/06/28 09:31:17;;;;;;;;;;;26.00;88.60;;;;;;4998625;28;20113;-80
2022/06/28 09:33:44;;;;;;;;;;;26.00;88.60;;;;;;4999205;28;19944;-80
2022/06/28 09:36:11;;;;;;;;;;;26.00;88.50;;;;;;4999798;28;20016;-80
2022/06/28 09:38:38;;;;;;;;;;;26.00;88.40;;;;;;4999044;28;19927;-80
2022/06/28 09:41:18;;;;;;;;;;;26.00;88.30;;;;;;4998621;28;19961;-80
2022/06/28 09:43:53;;;;;;;;;;;26.00;88.30;;;;;;4998269;28;20001;-80
2022/06/28 09:46:19;;;;;;;;;;;26.00;88.30;;;;;;4998432;28;19928;-80
2022/06/28 09:48:46;;;;;;;;;;;26.00;88.20;;;;;;4997873;28;20009;-80
2022/06/28 09:51:15;;;;;;;;;;;26.00;88.10;;;;;;4997655;28;20271;-80
2022/06/28 09:53:44;;;;;;;;;;;26.00;88.00;;;;;;4998078;28;19922;-80
2022/06/28 09:56:12;;;;;;;;;;;26.00;88.00;;;;;;4998552;28;20344;-79
2022/06/28 09:58:39;;;;;;;;;;;26.00;87.90;;;;;;4997895;28;19922;-79
2022/06/28 10:01:07;;;;;;;;;;;26.00;87.80;;;;;;4998433;28;19928;-80
2022/06/28 10:03:34;;;;;;;;;;;26.00;87.70;;;;;;4998123;28;20373;-80
2022/06/28 10:06:02;;;;;;;;;;;26.00;87.60;;;;;;4998078;28;20010;-80
2022/06/28 10:08:28;;;;;;;;;;;26.00;87.60;;;;;;4998546;28;19921;-80
2022/06/28 10:10:55;;;;;;;;;;;26.00;87.50;;;;;;4998306;28;19948;-80
2022/06/28 10:16:11;;;;;;;;;;;26.00;87.30;;;;;;4998512;28;19928;-79
2022/06/28 10:18:39;;;;;;;;;;;26.00;87.30;;;;;;4998457;28;19984;-79
2022/06/28 10:21:05;;;;;;;;;;;26.00;87.20;;;;;;4998254;28;20046;-80
2022/06/28 10:23:36;;;;;;;;;;;26.00;87.10;;;;;;4998399;28;19927;-79
2022/06/28 10:26:04;;;;;;;;;;;26.00;87.00;;;;;;4997833;28;19929;-79
2022/06/28 10:28:37;;;;;;;;;;;26.00;87.70;;;;;;4998380;28;20318;-79
2022/06/28 10:31:18;;;;;;;;;;;26.00;86.90;;;;;;4997627;28;19981;-79
2022/06/28 10:33:45;;;;;;;;;;;26.00;86.80;;;;;;4996754;28;19921;-79
2022/06/28 10:36:13;;;;;;;;;;;26.00;86.80;;;;;;4997758;28;20021;-79
2022/06/28 10:38:59;;;;;;;;;;;26.00;86.70;;;;;;4997605;28;20381;-79
2022/06/28 10:41:36;;;;;;;;;;;26.00;86.60;;;;;;4997305;28;19921;-80
2022/06/28 10:44:08;;;;;;;;;;;26.00;86.50;;;;;;5021206;23;20020;-81
2022/06/28 10:46:35;;;;;;;;;;;26.00;86.50;;;;;;4998467;28;19928;-81
2022/06/28 10:49:06;;;;;;;;;;;26.00;86.40;;;;;;4998356;28;19928;-81
2022/06/28 10:51:34;;;;;;;;;;;26.00;86.40;;;;;;4998805;28;19948;-81
2022/06/28 10:54:02;;;;;;;;;;;26.00;86.20;;;;;;4998513;28;20357;-81
2022/06/28 10:56:29;;;;;;;;;;;26.00;86.20;;;;;;4998306;28;19963;-81
2022/06/28 10:58:56;;;;;;;;;;;26.10;86.20;;;;;;4998279;28;19964;-81
2022/06/28 11:01:37;;;;;;;;;;;26.10;86.10;;;;;;4998480;28;19994;-82
2022/06/28 11:04:13;;;;;;;;;;;26.10;86.10;;;;;;4996443;28;19922;-83
2022/06/28 11:06:40;;;;;;;;;;;26.10;86.00;;;;;;4997401;28;20008;-83
2022/06/28 11:09:09;;;;;;;;;;;26.10;86.00;;;;;;4996466;28;20381;-83
2022/06/28 11:11:36;;;;;;;;;;;26.10;85.80;;;;;;4997272;28;20037;-83
2022/06/28 11:14:21;;;;;;;;;;;26.10;85.70;;;;;;4997339;28;19922;-83
2022/06/28 11:16:48;;;;;;;;;;;26.10;85.80;;;;;;4997438;28;19928;-83
2022/06/28 11:19:16;;;;;;;;;;;26.10;85.70;;;;;;4997760;28;20284;-83
2022/06/28 11:21:43;;;;;;;;;;;26.10;85.70;;;;;;4996985;28;20370;-83
2022/06/28 11:24:10;;;;;;;;;;;26.10;85.70;;;;;;4996581;28;20384;-83
2022/06/28 11:29:21;;;;;;;;;;;26.10;85.70;;;;;;4997415;28;20023;-83
2022/06/28 11:31:48;;;;;;;;;;;26.10;85.70;;;;;;4998314;28;20012;-83
2022/06/28 11:34:22;;;;;;;;;;;26.10;85.70;;;;;;5000452;28;19922;-83
2022/06/28 11:36:49;;;;;;;;;;;26.10;85.70;;;;;;4998482;28;19973;-83
2022/06/28 11:39:19;;;;;;;;;;;26.10;85.60;;;;;;4997021;28;19922;-83
2022/06/28 11:41:48;;;;;;;;;;;26.10;85.40;;;;;;4996968;28;20025;-83
2022/06/28 11:44:15;;;;;;;;;;;26.10;85.20;;;;;;4996463;28;19973;-83
2022/06/28 11:46:42;;;;;;;;;;;26.10;85.10;;;;;;4996752;28;19921;-83
2022/06/28 11:49:08;;;;;;;;;;;26.10;85.00;;;;;;4997369;28;19928;-83
2022/06/28 11:51:36;;;;;;;;;;;26.10;84.90;;;;;;4997730;28;19922;-83
2022/06/28 11:54:06;;;;;;;;;;;26.10;84.80;;;;;;4996291;28;20005;-83
2022/06/28 11:56:42;;;;;;;;;;;26.10;84.70;;;;;;4996641;28;20266;-83
2022/06/28 11:59:09;;;;;;;;;;;26.10;84.60;;;;;;4997038;28;19921;-83
2022/06/28 12:01:38;;;;;;;;;;;26.10;84.60;;;;;;4996841;28;19969;-83
2022/06/28 12:04:06;;;;;;;;;;;26.10;84.50;;;;;;4996690;28;19928;-83
2022/06/28 12:06:34;;;;;;;;;;;26.10;84.40;;;;;;4997345;28;19965;-83
2022/06/28 12:09:02;;;;;;;;;;;26.10;84.30;;;;;;4997122;28;20016;-83
2022/06/28 12:11:30;;;;;;;;;;;26.10;84.30;;;;;;4996361;28;20369;-83
2022/06/28 12:13:57;;;;;;;;;;;26.10;84.10;;;;;;4996661;28;19922;-85
2022/06/28 12:16:24;;;;;;;;;;;26.10;84.00;;;;;;4997468;28;20399;-85
2022/06/28 12:18:51;;;;;;;;;;;26.10;83.90;;;;;;4998745;28;20079;-85
2022/06/28 12:21:18;;;;;;;;;;;26.10;83.90;;;;;;4998731;28;19985;-85
2022/06/28 12:23:48;;;;;;;;;;;26.10;83.80;;;;;;4998096;28;20382;-85
2022/06/28 12:26:16;;;;;;;;;;;26.10;83.70;;;;;;4997684;28;20336;-85
2022/06/28 12:28:43;;;;;;;;;;;26.10;83.60;;;;;;4997591;28;19928;-85
2022/06/28 12:31:10;;;;;;;;;;;26.10;83.40;;;;;;4998065;28;19921;-85
2022/06/28 12:33:36;;;;;;;;;;;26.10;83.30;;;;;;4997906;28;19948;-85
2022/06/28 12:36:03;;;;;;;;;;;26.10;83.30;;;;;;4997893;28;20012;-85
2022/06/28 12:38:30;;;;;;;;;;;26.10;83.20;;;;;;4997461;28;20012;-85
2022/06/28 12:40:57;;;;;;;;;;;26.10;83.00;;;;;;4996666;28;19929;-85
2022/06/28 12:43:25;;;;;;;;;;;26.10;83.00;;;;;;4996709;28;19921;-85
2022/06/28 12:45:51;;;;;;;;;;;26.10;82.90;;;;;;4997595;28;19921;-86
2022/06/28 12:48:18;;;;;;;;;;;26.10;82.80;;;;;;5000681;28;19928;-87
2022/06/28 12:50:45;;;;;;;;;;;26.00;82.60;;;;;;4996777;28;19961;-86
2022/06/28 12:53:11;;;;;;;;;;;26.00;82.50;;;;;;4996275;28;19922;-86
2022/06/28 12:55:38;;;;;;;;;;;26.00;82.40;;;;;;4996485;28;19921;-85
2022/06/28 12:58:05;;;;;;;;;;;26.10;82.40;;;;;;4996595;28;20020;-86
2022/06/28 13:00:33;;;;;;;;;;;26.00;82.20;;;;;;4996797;28;20296;-85
2022/06/28 13:02:59;;;;;;;;;;;26.00;82.90;;;;;;4996524;28;20012;-85
2022/06/28 13:05:26;;;;;;;;;;;26.00;82.10;;;;;;4995951;28;19972;-85
2022/06/28 13:07:55;;;;;;;;;;;26.10;82.10;;;;;;4996670;28;19928;-85
2022/06/28 13:10:22;;;;;;;;;;;26.00;81.90;;;;;;4996562;28;19921;-85
2022/06/28 13:12:49;;;;;;;;;;;26.00;81.80;;;;;;4995943;28;20365;-85
2022/06/28 13:15:16;;;;;;;;;;;26.00;81.70;;;;;;4995918;28;20413;-85
2022/06/28 13:17:44;;;;;;;;;;;26.00;81.60;;;;;;4996380;28;20357;-85
2022/06/28 13:20:13;;;;;;;;;;;26.00;82.20;;;;;;4996084;28;20012;-85
2022/06/28 13:22:40;;;;;;;;;;;26.00;81.40;;;;;;4996488;28;19965;-85
2022/06/28 13:25:07;;;;;;;;;;;26.00;81.30;;;;;;4995971;28;20016;-85
2022/06/28 13:27:34;;;;;;;;;;;26.00;81.30;;;;;;4996695;28;20020;-86
2022/06/28 13:30:00;;;;;;;;;;;26.00;81.10;;;;;;5000131;28;19961;-85
2022/06/28 13:32:27;;;;;;;;;;;26.00;81.10;;;;;;5016922;28;19949;-85
2022/06/28 13:34:55;;;;;;;;;;;26.00;81.00;;;;;;5019280;28;19964;-85
2022/06/28 13:37:22;;;;;;;;;;;26.00;80.90;;;;;;5020095;28;19964;-85
2022/06/28 13:39:48;;;;;;;;;;;26.00;80.80;;;;;;5019604;28;19921;-85
2022/06/28 13:42:15;;;;;;;;;;;26.00;80.70;;;;;;5019582;28;19921;-86
2022/06/28 13:44:42;;;;;;;;;;;26.00;80.60;;;;;;5013607;28;19929;-85
2022/06/28 13:47:11;;;;;;;;;;;26.00;80.60;;;;;;5009162;28;19945;-85
2022/06/28 13:49:38;;;;;;;;;;;26.00;80.40;;;;;;5009800;28;19948;-85
2022/06/28 13:52:08;;;;;;;;;;;26.00;80.40;;;;;;5010684;28;19921;-86
2022/06/28 13:54:35;;;;;;;;;;;26.00;80.30;;;;;;5014013;28;19922;-86
2022/06/28 13:57:02;;;;;;;;;;;26.00;80.20;;;;;;5011813;28;20365;-87
2022/06/28 13:59:29;;;;;;;;;;;26.00;80.00;;;;;;5010223;28;19921;-87
2022/06/28 14:01:56;;;;;;;;;;;26.00;79.90;;;;;;5010140;28;19925;-86
2022/06/28 14:04:23;;;;;;;;;;;26.00;79.90;;;;;;5011025;28;19922;-85
2022/06/28 14:06:50;;;;;;;;;;;26.00;79.90;;;;;;5010999;28;19926;-85
2022/06/28 14:09:19;;;;;;;;;;;26.00;79.90;;;;;;5012135;28;19932;-83
2022/06/28 14:11:46;;;;;;;;;;;26.00;79.80;;;;;;5008920;28;20020;-83
2022/06/28 14:14:14;;;;;;;;;;;25.90;79.80;;;;;;5010032;28;19922;-83
2022/06/28 14:16:41;;;;;;;;;;;26.00;80.00;;;;;;5009051;28;19925;-82
2022/06/28 14:19:08;;;;;;;;;;;26.00;80.20;;;;;;5005300;28;20385;-82
2022/06/28 14:21:35;;;;;;;;;;;26.00;80.30;;;;;;5004898;28;19945;-82
2022/06/28 14:24:02;;;;;;;;;;;26.00;80.40;;;;;;5008368;28;19929;-82
2022/06/28 14:26:31;;;;;;;;;;;26.00;80.60;;;;;;5006962;28;20377;-83
2022/06/28 14:28:58;;;;;;;;;;;26.00;80.70;;;;;;5007335;28;19921;-83
2022/06/28 14:31:25;;;;;;;;;;;26.00;80.90;;;;;;5007706;28;19922;-83
2022/06/28 14:33:52;;;;;;;;;;;26.10;81.10;;;;;;5006183;28;20373;-82
2022/06/28 14:36:20;;;;;;;;;;;26.10;81.30;;;;;;5006441;28;19961;-83
2022/06/28 14:38:47;;;;;;;;;;;26.10;81.50;;;;;;5007281;28;19928;-83
2022/06/28 14:41:14;;;;;;;;;;;26.10;81.70;;;;;;5007136;28;20020;-82
2022/06/28 14:43:43;;;;;;;;;;;26.10;81.90;;;;;;5005759;28;19922;-82
2022/06/28 14:46:10;;;;;;;;;;;26.10;82.10;;;;;;5005838;28;19929;-83
2022/06/28 14:48:37;;;;;;;;;;;26.10;82.20;;;;;;5007677;28;19984;-83
2022/06/28 14:51:04;;;;;;;;;;;26.10;82.40;;;;;;5007319;28;19922;-82
2022/06/28 14:53:32;;;;;;;;;;;26.10;82.60;;;;;;5007897;28;19921;-82
2022/06/28 14:56:00;;;;;;;;;;;26.10;82.70;;;;;;5005078;28;19936;-83
2022/06/28 14:58:28;;;;;;;;;;;26.10;82.90;;;;;;5004982;28;19925;-81
2022/06/28 15:00:56;;;;;;;;;;;26.10;83.00;;;;;;5002972;28;19929;-82
2022/06/28 15:03:22;;;;;;;;;;;26.10;83.10;;;;;;4999718;28;20008;-88
2022/06/28 15:05:49;;;;;;;;;;;26.10;83.10;;;;;;5000091;28;19928;-83
2022/06/28 15:08:16;;;;;;;;;;;26.10;83.10;;;;;;5000202;28;20340;-83
2022/06/28 15:10:43;;;;;;;;;;;26.10;83.10;;;;;;5000092;28;19922;-83
2022/06/28 15:13:10;;;;;;;;;;;26.10;83.00;;;;;;5000484;28;20016;-83
2022/06/28 15:15:36;;;;;;;;;;;26.10;83.00;;;;;;5000182;28;19968;-83
2022/06/28 15:18:04;;;;;;;;;;;26.10;83.00;;;;;;5001396;28;19980;-83
2022/06/28 15:20:31;;;;;;;;;;;26.10;83.00;;;;;;5002145;28;19971;-83
2022/06/28 15:31:10;;;;;;;;;;;26.10;83.00;;;;;;5006272;28;19925;-85
2022/06/28 15:33:38;;;;;;;;;;;26.10;83.10;;;;;;5002773;28;20008;-86
2022/06/28 15:36:06;;;;;;;;;;;26.10;82.80;;;;;;5000836;28;19928;-85
2022/06/28 15:38:33;;;;;;;;;;;26.10;82.30;;;;;;4999901;28;19928;-86
2022/06/28 15:41:00;;;;;;;;;;;26.00;82.00;;;;;;5003563;28;20016;-86
2022/06/28 15:43:26;;;;;;;;;;;26.00;81.60;;;;;;5001750;28;20004;-85
2022/06/28 15:45:53;;;;;;;;;;;26.00;81.30;;;;;;5002508;28;20012;-85
2022/06/28 15:48:21;;;;;;;;;;;26.00;80.90;;;;;;4999928;28;19976;-87
2022/06/28 15:50:49;;;;;;;;;;;25.90;80.40;;;;;;5000126;28;19921;-86
2022/06/28 15:53:16;;;;;;;;;;;25.90;79.80;;;;;;4997774;28;20359;-87
2022/06/28 15:55:42;;;;;;;;;;;25.90;79.80;;;;;;4997883;28;20020;-87
2022/06/28 15:58:09;;;;;;;;;;;25.90;79.70;;;;;;4999096;28;19956;-86
2022/06/28 16:00:36;;;;;;;;;;;25.80;79.20;;;;;;5002472;28;19944;-84
2022/06/28 16:03:03;;;;;;;;;;;25.80;78.90;;;;;;5004310;28;19922;-82
2022/06/28 16:05:30;;;;;;;;;;;25.80;78.60;;;;;;4999886;28;19922;-83
2022/06/28 16:07:58;;;;;;;;;;;25.80;78.40;;;;;;4999811;28;19928;-83
2022/06/28 16:10:25;;;;;;;;;;;25.80;77.90;;;;;;4999024;28;19921;-83
2022/06/28 16:13:00;;;;;;;;;;;25.80;77.30;;;;;;5000250;28;19928;-84
2022/06/28 16:15:28;;;;;;;;;;;25.80;77.10;;;;;;4999648;28;19934;-83
2022/06/28 16:17:54;;;;;;;;;;;25.80;76.90;;;;;;5000362;28;20012;-84
2022/06/28 16:20:22;;;;;;;;;;;25.80;76.70;;;;;;4999874;28;19921;-83
2022/06/28 16:22:49;;;;;;;;;;;25.80;76.30;;;;;;5000497;28;20393;-83
2022/06/28 16:25:17;;;;;;;;;;;25.80;75.90;;;;;;4998415;28;19922;-79
2022/06/28 16:27:44;;;;;;;;;;;25.70;75.60;;;;;;4997260;28;19928;-79
2022/06/28 16:30:12;;;;;;;;;;;25.70;75.10;;;;;;4998623;28;19922;-81
2022/06/28 16:32:39;;;;;;;;;;;25.70;74.90;;;;;;4997477;28;19926;-79
2022/06/28 16:35:06;;;;;;;;;;;25.70;74.80;;;;;;4996006;28;19921;-79
2022/06/28 16:37:33;;;;;;;;;;;25.70;74.50;;;;;;4994887;28;19929;-78
2022/06/28 16:40:00;;;;;;;718.00;69.50;;;25.70;74.30;;;;;;4995324;28;20453;-79
2022/06/28 16:42:28;;;;;;;;;;;25.60;75.40;;;;;;4997800;28;20504;-83
2022/06/28 16:44:54;;;;;;;;;;;24.90;80.30;;;;;;5000558;28;19945;-82
2022/06/28 16:47:21;;;;;;;;;;;25.20;84.60;;;;;;5001717;28;19956;-82
2022/06/28 16:49:48;;;;;;;;;;;25.30;84.30;;;;;;5005041;28;20004;-81
2022/06/28 16:52:15;;;;;;;;;;;25.50;83.60;;;;;;5007860;28;20020;-83
2022/06/28 16:54:42;;;;;;;;;;;25.60;82.90;;;;;;5007008;28;19989;-82
2022/06/28 16:57:09;;;;;;;;;;;25.70;82.30;;;;;;5007515;28;20336;-83
2022/06/28 16:59:37;;;;;;;;;;;25.70;81.60;;;;;;5007389;28;20354;-83
2022/06/28 17:02:04;;;;;;;;;;;25.70;81.00;;;;;;5006227;28;20012;-83
2022/06/28 17:04:30;;;;;;;;;;;25.80;80.60;;;;;;5006423;28;19984;-82
2022/06/28 17:09:41;;;;;;;;;;;25.80;79.70;;;;;;5016371;28;19925;-82
2022/06/28 17:12:08;;;;;;;;;;;25.80;79.70;;;;;;5017504;28;19949;-82
2022/06/28 17:14:36;;;;;;;;;;;25.80;79.20;;;;;;5012143;28;19957;-83
2022/06/28 17:17:03;;;;;;;;;;;25.80;78.80;;;;;;5010985;28;19989;-83
2022/06/28 17:19:30;;;;;;;;;;;25.80;78.40;;;;;;5011983;28;20018;-83
2022/06/28 17:21:57;;;;;;;;;;;25.80;78.10;;;;;;5009821;28;20020;-82
2022/06/28 17:24:24;;;;;;;;;;;25.80;77.80;;;;;;5009717;28;19945;-82
2022/06/28 17:26:50;;;;;;;;;;;25.80;77.60;;;;;;5007489;28;19925;-82
2022/06/28 17:29:17;;;;;;;;;;;25.80;77.30;;;;;;5009041;28;19972;-82
2022/06/28 17:31:45;;;;;;;;;;;25.80;77.00;;;;;;5009096;28;19981;-82
2022/06/28 17:34:12;;;;;;;;;;;25.80;76.70;;;;;;5010325;28;20017;-83
2022/06/28 17:36:38;;;;;;;;;;;25.80;76.50;;;;;;5006351;28;20013;-81
2022/06/28 17:39:05;;;;;;;;;;;25.80;76.30;;;;;;5004810;28;20008;-82
2022/06/28 17:41:32;;;;;;;;;;;25.80;76.10;;;;;;5002855;28;20381;-82
2022/06/28 17:43:59;;;;;;;;;;;25.80;75.90;;;;;;5002673;28;19985;-82
2022/06/28 17:46:26;;;;;;;;;;;25.80;75.70;;;;;;5004167;28;19983;-82
2022/06/28 17:48:55;;;;;;;;;;;25.80;75.50;;;;;;5005241;28;19933;-84
2022/06/28 17:51:22;;;;;;;;;;;25.80;75.40;;;;;;5003636;28;19972;-83
2022/06/28 17:53:48;;;;;;;;;;;25.80;75.20;;;;;;5003963;28;19953;-84
2022/06/28 17:56:15;;;;;;;;;;;25.80;75.00;;;;;;5007706;28;20053;-82
2022/06/28 17:58:42;;;;;;;;;;;25.80;74.90;;;;;;5010578;28;19921;-82
2022/06/28 18:01:09;;;;;;;;;;;25.80;74.80;;;;;;5008364;28;20413;-83
2022/06/28 18:03:35;;;;;;;;;;;25.80;74.60;;;;;;5011510;28;19964;-83
2022/06/28 18:06:04;;;;;;;;;;;25.80;74.50;;;;;;5011504;28;19961;-83
2022/06/28 18:08:30;;;;;;;;;;;25.90;74.40;;;;;;5010582;28;19925;-83
2022/06/28 18:10:57;;;;;;;;;;;25.80;74.30;;;;;;5010552;28;20018;-83
2022/06/28 18:13:24;;;;;;;;;;;25.90;74.20;;;;;;5010127;28;19929;-83
2022/06/28 18:15:50;;;;;;;;;;;25.90;73.90;;;;;;5010089;28;20016;-83
2022/06/28 18:18:17;;;;;;;;;;;25.90;73.90;;;;;;5011643;28;19984;-83
2022/06/28 18:20:44;;;;;;;;;;;25.80;73.80;;;;;;5007985;28;19921;-83
2022/06/28 18:23:12;;;;;;;;;;;25.90;73.90;;;;;;5008057;28;20309;-82
2022/06/28 18:25:39;;;;;;;;;;;25.80;73.80;;;;;;5006212;28;20016;-81
2022/06/28 18:28:05;;;;;;;;;;;25.90;73.90;;;;;;5001326;28;19922;-83
2022/06/28 18:30:32;;;;;;;;;;;25.80;73.80;;;;;;5002717;28;20013;-82
2022/06/28 18:32:59;;;;;;;;;;;25.90;73.90;;;;;;4998311;28;19928;-79
2022/06/28 18:35:26;;;;;;;;;;;25.90;73.90;;;;;;4998454;28;19922;-78
2022/06/28 18:37:53;;;;;;;;;;;25.90;73.90;;;;;;4998444;28;20004;-81
2022/06/28 18:40:21;;;;;;;;;;;25.90;74.10;;;;;;5002122;28;19922;-83
2022/06/28 18:42:47;;;;;;;;;;;25.90;74.30;;;;;;5002245;28;19928;-80
2022/06/28 18:45:14;;;;;;;;;;;25.90;74.30;;;;;;5000684;28;19928;-82
2022/06/28 18:47:41;;;;;;;;;;;25.90;74.50;;;;;;5001860;28;19985;-80
2022/06/28 18:50:08;;;;;;;;;;;26.00;74.60;;;;;;5001722;28;20274;-81
2022/06/28 18:52:35;;;;;;;;;;;26.00;74.60;;;;;;5002046;28;20013;-83
2022/06/28 18:55:02;;;;;;;;;;;26.00;74.70;;;;;;5001124;28;20016;-82
2022/06/28 18:57:30;;;;;;;;;;;26.00;74.70;;;;;;5001188;28;19921;-82
2022/06/28 18:59:57;;;;;;;;;;;26.00;74.70;;;;;;5001656;28;19928;-82
2022/06/28 19:02:24;;;;;;;;;;;26.00;74.80;;;;;;5000521;28;19977;-82
2022/06/28 19:04:50;;;;;;;;;;;26.00;74.90;;;;;;4999422;28;20067;-81
2022/06/28 19:07:20;;;;;;;;;;;26.00;75.00;;;;;;5002254;28;20000;-85